createdAt,value
2023-02-27T00:00:31.475Z,4.10
2023-02-27T00:02:59.446Z,4.20
2023-02-27T00:05:27.098Z,4.20
2023-02-27T00:07:54.736Z,4.30
2023-02-27T00:10:22.414Z,4.40
2023-02-27T00:12:49.982Z,4.40
2023-02-27T00:15:20.075Z,4.30
2023-02-27T00:17:47.773Z,4.30
2023-02-27T00:20:17.283Z,4.20
2023-02-27T00:22:45.982Z,4.10
2023-02-27T00:25:14.245Z,4.00
2023-02-27T00:27:42.403Z,3.80
2023-02-27T00:30:13.001Z,3.60
2023-02-27T00:32:40.888Z,3.50
2023-02-27T00:35:11.163Z,3.40
2023-02-27T00:37:39.742Z,3.40
2023-02-27T00:40:08.068Z,3.40
2023-02-27T00:42:35.933Z,3.40
2023-02-27T00:45:05.015Z,3.50
2023-02-27T00:47:34.120Z,3.50
2023-02-27T00:50:02.098Z,3.60
2023-02-27T00:52:30.061Z,3.60
2023-02-27T00:55:00.116Z,3.70
2023-02-27T00:57:28.733Z,3.70
2023-02-27T01:02:24.375Z,3.70
2023-02-27T01:04:52.061Z,3.70
2023-02-27T01:07:19.764Z,3.80
2023-02-27T01:09:47.436Z,3.80
2023-02-27T01:12:15.448Z,3.90
2023-02-27T01:14:45.117Z,3.90
2023-02-27T01:17:13.997Z,4.00
2023-02-27T01:19:41.657Z,4.00
2023-02-27T01:22:09.228Z,4.10
2023-02-27T01:24:36.758Z,4.20
2023-02-27T01:27:04.462Z,4.20
2023-02-27T01:29:32.105Z,4.30
2023-02-27T01:31:59.909Z,4.20
2023-02-27T01:34:27.644Z,4.30
2023-02-27T01:36:55.736Z,4.30
2023-02-27T01:39:23.561Z,4.30
2023-02-27T01:41:51.083Z,4.30
2023-02-27T01:44:19.127Z,4.40
2023-02-27T01:46:47.135Z,4.40
2023-02-27T01:49:16.885Z,4.40
2023-02-27T01:51:50.497Z,4.40
2023-02-27T01:54:22.578Z,4.40
2023-02-27T01:56:50.961Z,4.40
2023-02-27T01:59:19.578Z,4.40
2023-02-27T02:01:51.722Z,4.40
2023-02-27T02:04:28.336Z,4.40
2023-02-27T02:07:06.161Z,4.40
2023-02-27T02:09:39.698Z,4.50
2023-02-27T02:12:08.251Z,4.50
2023-02-27T02:14:35.993Z,4.50
2023-02-27T02:17:26.360Z,4.50
2023-02-27T02:19:59.741Z,4.50
2023-02-27T02:22:51.230Z,4.60
2023-02-27T02:25:57.164Z,4.60
2023-02-27T02:28:43.624Z,4.70
2023-02-27T02:31:47.665Z,4.70
2023-02-27T02:34:53.072Z,4.80
2023-02-27T02:38:12.970Z,4.80
2023-02-27T02:41:05.727Z,4.80
2023-02-27T02:43:39.013Z,4.80
2023-02-27T02:46:18.719Z,4.80
2023-02-27T02:49:09.681Z,4.80
2023-02-27T02:51:46.976Z,4.80
2023-02-27T02:54:21.913Z,4.80
2023-02-27T02:57:06.687Z,4.80
2023-02-27T02:59:57.960Z,4.70
2023-02-27T03:02:34.309Z,4.70
2023-02-27T03:05:08.843Z,4.70
2023-02-27T03:07:47.804Z,4.70
2023-02-27T03:10:26.980Z,4.80
2023-02-27T03:13:12.265Z,4.80
2023-02-27T03:15:49.706Z,4.80
2023-02-27T03:18:24.535Z,4.70
2023-02-27T03:20:58.232Z,4.70
2023-02-27T03:23:34.814Z,4.70
2023-02-27T03:26:04.102Z,4.70
2023-02-27T03:28:37.701Z,4.60
2023-02-27T03:31:13.552Z,4.60
2023-02-27T03:33:51.762Z,4.60
2023-02-27T03:36:32.359Z,4.60
2023-02-27T03:39:22.278Z,4.60
2023-02-27T03:42:11.580Z,4.60
2023-02-27T03:45:29.284Z,4.60
2023-02-27T03:47:57.855Z,4.60
2023-02-27T03:50:25.896Z,4.60
2023-02-27T03:52:53.804Z,4.60
2023-02-27T03:55:26.565Z,4.60
2023-02-27T03:57:54.743Z,4.70
2023-02-27T04:00:24.959Z,4.70
2023-02-27T04:02:56.108Z,4.70
2023-02-27T04:05:28.781Z,4.70
2023-02-27T04:08:19.192Z,4.70
2023-02-27T04:11:31.983Z,4.70
2023-02-27T04:14:40.715Z,4.80
2023-02-27T04:17:23.129Z,4.80
2023-02-27T04:19:58.468Z,4.80
2023-02-27T04:22:33.928Z,4.80
2023-02-27T04:25:10.555Z,4.70
2023-02-27T04:27:52.867Z,4.70
2023-02-27T04:30:35.427Z,4.70
2023-02-27T04:33:15.468Z,4.70
2023-02-27T04:36:07.089Z,4.70
2023-02-27T04:38:49.296Z,4.70
2023-02-27T04:41:22.477Z,4.70
2023-02-27T04:43:51.926Z,4.60
2023-02-27T04:46:23.688Z,4.60
2023-02-27T04:49:15.205Z,4.60
2023-02-27T04:52:11.688Z,4.60
2023-02-27T04:54:54.178Z,4.60
2023-02-27T04:57:31.975Z,4.60
2023-02-27T05:00:05.408Z,4.60
2023-02-27T05:02:38.147Z,4.50
2023-02-27T05:05:19.916Z,4.50
2023-02-27T05:08:02.028Z,4.50
2023-02-27T05:10:40.838Z,4.50
2023-02-27T05:13:26.865Z,4.60
2023-02-27T05:16:21.395Z,4.60
2023-02-27T05:18:50.261Z,4.60
2023-02-27T05:21:36.403Z,4.50
2023-02-27T05:24:26.393Z,4.50
2023-02-27T05:27:21.512Z,4.60
2023-02-27T05:29:54.392Z,4.60
2023-02-27T05:32:36.492Z,4.60
2023-02-27T05:35:07.215Z,4.60
2023-02-27T05:37:58.936Z,4.60
2023-02-27T05:40:33.197Z,4.60
2023-02-27T05:43:04.723Z,4.70
2023-02-27T05:45:36.909Z,4.60
2023-02-27T05:48:22.230Z,4.60
2023-02-27T05:50:52.459Z,4.60
2023-02-27T05:53:22.184Z,4.60
2023-02-27T05:55:59.275Z,4.60
2023-02-27T05:58:32.642Z,4.60
2023-02-27T06:01:02.850Z,4.60
2023-02-27T06:03:33.331Z,4.60
2023-02-27T06:06:06.491Z,4.60
2023-02-27T06:08:34.712Z,4.60
2023-02-27T06:11:02.942Z,4.60
2023-02-27T06:13:30.574Z,4.60
2023-02-27T06:15:58.185Z,4.50
2023-02-27T06:18:25.872Z,4.50
2023-02-27T06:20:54.905Z,4.50
2023-02-27T06:23:22.739Z,4.50
2023-02-27T06:25:50.530Z,4.50
2023-02-27T06:28:18.104Z,4.50
2023-02-27T06:30:46.520Z,4.50
2023-02-27T06:33:14.301Z,4.50
2023-02-27T06:35:41.910Z,4.50
2023-02-27T06:38:09.501Z,4.50
2023-02-27T06:40:38.451Z,4.50
2023-02-27T06:43:06.202Z,4.50
2023-02-27T06:45:33.809Z,4.50
2023-02-27T06:48:01.445Z,4.50
2023-02-27T06:50:28.994Z,4.50
2023-02-27T06:52:56.640Z,4.50
2023-02-27T06:55:25.706Z,4.50
2023-02-27T06:57:53.376Z,4.50
2023-02-27T07:00:21.447Z,4.50
2023-02-27T07:02:49.299Z,4.50
2023-02-27T07:05:18.113Z,4.50
2023-02-27T07:07:45.902Z,4.50
2023-02-27T07:10:14.503Z,4.50
2023-02-27T07:12:42.363Z,4.60
2023-02-27T07:15:10.403Z,4.50
2023-02-27T07:17:38.320Z,4.60
2023-02-27T07:20:08.331Z,4.60
2023-02-27T07:22:36.550Z,4.50
2023-02-27T07:25:04.957Z,4.60
2023-02-27T07:27:32.726Z,4.60
2023-02-27T07:30:01.142Z,4.60
2023-02-27T07:32:28.958Z,4.60
2023-02-27T07:34:56.542Z,4.60
2023-02-27T07:37:25.916Z,4.70
2023-02-27T07:39:54.652Z,4.60
2023-02-27T07:42:22.213Z,4.60
2023-02-27T07:44:50.017Z,4.70
2023-02-27T07:47:20.457Z,4.70
2023-02-27T07:49:48.124Z,4.70
2023-02-27T07:52:15.787Z,4.80
2023-02-27T07:54:43.467Z,4.70
2023-02-27T07:57:11.276Z,4.80
2023-02-27T07:59:38.859Z,4.80
2023-02-27T08:02:07.527Z,4.80
2023-02-27T08:04:35.133Z,4.90
2023-02-27T08:07:03.224Z,4.90
2023-02-27T08:09:31.260Z,5.00
2023-02-27T08:11:59.080Z,5.10
2023-02-27T08:16:54.452Z,5.20
2023-02-27T08:19:22.064Z,5.10
2023-02-27T08:21:49.843Z,5.30
2023-02-27T08:26:45.459Z,5.50
2023-02-27T08:34:11.729Z,5.70
2023-02-27T08:36:40.084Z,5.80
2023-02-27T08:39:09.100Z,5.90
2023-02-27T08:41:42.326Z,6.00
2023-02-27T08:44:14.061Z,6.20
2023-02-27T08:46:41.797Z,6.20
2023-02-27T08:49:09.302Z,6.30
2023-02-27T08:54:04.728Z,6.40
2023-02-27T08:56:34.537Z,6.50
2023-02-27T08:59:02.750Z,6.50
2023-02-27T09:01:34.454Z,6.60
2023-02-27T09:04:04.054Z,6.60
2023-02-27T09:06:33.102Z,6.70
2023-02-27T09:09:01.259Z,6.60
2023-02-27T09:11:29.259Z,6.70
2023-02-27T09:13:57.546Z,6.70
2023-02-27T09:16:25.833Z,6.70
2023-02-27T09:18:54.121Z,6.70
2023-02-27T09:21:23.645Z,6.60
2023-02-27T09:23:52.233Z,6.70
2023-02-27T09:26:19.870Z,6.70
2023-02-27T09:28:47.537Z,6.70
2023-02-27T09:33:44.608Z,6.80
2023-02-27T09:41:42.166Z,6.90
2023-02-27T09:44:46.036Z,6.80
2023-02-27T09:47:42.204Z,6.80
2023-02-27T09:50:34.795Z,6.90
2023-02-27T09:53:02.675Z,7.00
2023-02-27T09:55:33.843Z,7.20
2023-02-27T09:58:14.436Z,7.50
2023-02-27T10:00:57.020Z,7.80
2023-02-27T10:03:53.756Z,8.00
2023-02-27T10:06:39.460Z,8.60
2023-02-27T10:12:07.036Z,10.00
2023-02-27T10:14:49.465Z,10.20
2023-02-27T10:17:31.793Z,10.00
2023-02-27T10:20:02.888Z,9.70
2023-02-27T10:22:36.509Z,9.40
2023-02-27T10:25:28.418Z,9.10
2023-02-27T10:28:08.966Z,8.70
2023-02-27T10:30:36.815Z,8.60
2023-02-27T10:33:22.218Z,8.50
2023-02-27T10:35:53.703Z,8.70
2023-02-27T10:38:34.844Z,8.80
2023-02-27T10:41:03.970Z,8.90
2023-02-27T10:43:32.055Z,9.20
2023-02-27T10:46:07.003Z,9.50
2023-02-27T10:51:26.982Z,9.80
2023-02-27T10:54:21.237Z,9.90
2023-02-27T10:56:52.452Z,9.80
2023-02-27T10:59:27.618Z,9.60
2023-02-27T11:02:18.045Z,9.50
2023-02-27T11:04:58.855Z,9.20
2023-02-27T11:07:30.433Z,8.90
2023-02-27T11:10:16.737Z,8.80
2023-02-27T11:13:06.868Z,8.70
2023-02-27T11:15:37.336Z,8.70
2023-02-27T11:18:40.658Z,8.90
2023-02-27T11:21:15.915Z,9.20
2023-02-27T11:24:07.671Z,9.30
2023-02-27T11:26:37.336Z,9.40
2023-02-27T11:29:15.830Z,9.40
2023-02-27T11:31:51.084Z,9.30
2023-02-27T11:34:21.042Z,9.20
2023-02-27T11:36:50.453Z,9.30
2023-02-27T11:39:25.876Z,9.70
2023-02-27T11:41:55.382Z,10.80
2023-02-27T11:44:49.705Z,12.40
2023-02-27T11:47:23.126Z,12.50
2023-02-27T11:50:08.947Z,15.00
2023-02-27T11:52:50.925Z,15.00
2023-02-27T11:55:22.112Z,14.90
2023-02-27T11:57:55.368Z,13.40
2023-02-27T12:00:39.756Z,12.70
2023-02-27T12:03:52.224Z,12.00
2023-02-27T12:06:25.157Z,11.30
2023-02-27T12:09:01.876Z,10.80
2023-02-27T12:11:35.939Z,10.40
2023-02-27T12:14:21.328Z,10.20
2023-02-27T12:16:55.325Z,10.00
2023-02-27T12:19:46.919Z,10.20
2023-02-27T12:22:26.832Z,10.30
2023-02-27T12:25:01.097Z,10.30
2023-02-27T12:28:01.469Z,10.20
2023-02-27T12:30:54.816Z,10.00
2023-02-27T12:33:49.826Z,10.00
2023-02-27T12:41:44.007Z,10.10
2023-02-27T12:44:33.103Z,10.00
2023-02-27T12:47:06.232Z,10.00
2023-02-27T12:49:55.214Z,9.90
2023-02-27T12:55:02.221Z,9.70
2023-02-27T12:57:49.637Z,9.70
2023-02-27T13:00:25.181Z,9.60
2023-02-27T13:03:25.700Z,9.60
2023-02-27T13:06:18.110Z,9.60
2023-02-27T13:08:55.217Z,9.60
2023-02-27T13:11:56.071Z,9.70
2023-02-27T13:15:01.823Z,9.70
2023-02-27T13:20:07.300Z,9.80
2023-02-27T13:23:08.634Z,9.90
2023-02-27T13:25:38.757Z,9.90
2023-02-27T13:28:13.478Z,9.90
2023-02-27T13:31:04.485Z,9.80
2023-02-27T13:34:06.966Z,9.70
2023-02-27T13:37:03.480Z,9.60
2023-02-27T13:39:47.048Z,9.50
2023-02-27T13:42:28.146Z,9.60
2023-02-27T13:45:04.660Z,9.70
2023-02-27T13:47:49.866Z,9.90
2023-02-27T13:50:17.464Z,10.20
2023-02-27T13:52:46.977Z,10.30
2023-02-27T13:55:35.336Z,10.50
2023-02-27T13:58:04.969Z,10.50
2023-02-27T14:00:35.608Z,10.40
2023-02-27T14:03:17.518Z,10.30
2023-02-27T14:05:48.061Z,10.20
2023-02-27T14:08:21.117Z,10.10
2023-02-27T14:11:11.835Z,10.00
2023-02-27T14:14:08.113Z,10.10
2023-02-27T14:16:41.595Z,10.10
2023-02-27T14:19:15.134Z,10.10
2023-02-27T14:22:11.744Z,10.20
2023-02-27T14:25:01.665Z,10.40
2023-02-27T14:27:44.399Z,10.60
2023-02-27T14:30:30.019Z,10.60
2023-02-27T14:33:03.002Z,10.60
2023-02-27T14:35:31.683Z,10.60
2023-02-27T14:38:03.796Z,10.60
2023-02-27T14:40:36.973Z,10.40
2023-02-27T14:43:45.146Z,10.30
2023-02-27T14:46:34.399Z,10.10
2023-02-27T14:49:23.344Z,10.00
2023-02-27T14:54:23.109Z,9.80
2023-02-27T14:57:01.139Z,9.80
2023-02-27T14:59:50.015Z,9.70
2023-02-27T15:02:28.248Z,9.60
2023-02-27T15:05:01.999Z,9.50
2023-02-27T15:07:32.125Z,9.40
2023-02-27T15:10:04.314Z,9.30
2023-02-27T15:12:37.612Z,9.20
2023-02-27T15:15:10.145Z,9.10
2023-02-27T15:17:43.866Z,9.00
2023-02-27T15:20:30.227Z,9.10
2023-02-27T15:23:02.712Z,9.00
2023-02-27T15:25:38.603Z,9.10
2023-02-27T15:28:29.590Z,9.10
2023-02-27T15:30:57.885Z,9.20
2023-02-27T15:33:30.432Z,9.30
2023-02-27T15:35:59.376Z,9.40
2023-02-27T15:38:33.182Z,9.50
2023-02-27T15:41:03.306Z,9.70
2023-02-27T15:43:31.741Z,9.80
2023-02-27T15:46:00.169Z,9.80
2023-02-27T15:48:29.880Z,9.80
2023-02-27T15:50:59.507Z,9.70
2023-02-27T15:53:29.756Z,9.60
2023-02-27T15:56:00.664Z,9.50
2023-02-27T15:58:31.117Z,9.40
2023-02-27T16:01:08.866Z,9.30
2023-02-27T16:03:40.365Z,9.10
2023-02-27T16:06:23.427Z,9.10
2023-02-27T16:09:01.095Z,8.90
2023-02-27T16:11:34.481Z,8.90
2023-02-27T16:14:02.551Z,8.90
2023-02-27T16:16:37.551Z,8.90
2023-02-27T16:19:34.751Z,9.00
2023-02-27T16:22:03.653Z,9.00
2023-02-27T16:24:32.319Z,9.00
2023-02-27T16:29:44.261Z,9.00
2023-02-27T16:32:31.024Z,9.00
2023-02-27T16:35:05.905Z,8.90
2023-02-27T16:37:41.791Z,8.90
2023-02-27T16:40:14.831Z,8.80
2023-02-27T16:42:43.426Z,8.80
2023-02-27T16:45:19.158Z,8.80
2023-02-27T16:47:52.385Z,8.70
2023-02-27T16:50:28.223Z,8.70
2023-02-27T16:55:25.891Z,8.70
2023-02-27T17:07:48.918Z,8.60
2023-02-27T17:10:19.606Z,8.60
2023-02-27T17:12:48.035Z,8.60
2023-02-27T17:15:16.270Z,8.50
2023-02-27T17:17:44.632Z,8.50
2023-02-27T17:20:14.110Z,8.50
2023-02-27T17:22:44.820Z,8.50
2023-02-27T17:25:13.490Z,8.40
2023-02-27T17:27:43.609Z,8.40
2023-02-27T17:30:12.754Z,8.40
2023-02-27T17:32:40.449Z,8.40
2023-02-27T17:35:09.005Z,8.40
2023-02-27T17:37:36.756Z,8.40
2023-02-27T17:40:05.774Z,8.40
2023-02-27T17:42:36.573Z,8.20
2023-02-27T17:45:06.480Z,8.30
2023-02-27T17:47:34.786Z,8.30
2023-02-27T17:50:04.605Z,8.20
2023-02-27T17:52:32.390Z,8.20
2023-02-27T17:55:00.116Z,8.00
2023-02-27T17:57:27.693Z,8.10
2023-02-27T17:59:55.555Z,8.00
2023-02-27T18:02:23.417Z,8.00
2023-02-27T18:04:51.278Z,8.00
2023-02-27T18:12:14.812Z,7.90
2023-02-27T18:14:42.525Z,7.90
2023-02-27T18:17:13.100Z,7.80
2023-02-27T18:19:42.174Z,7.80
2023-02-27T18:22:10.368Z,7.80
2023-02-27T18:24:38.341Z,7.80
2023-02-27T18:27:05.923Z,7.80
2023-02-27T18:29:33.622Z,7.80
2023-02-27T18:32:01.243Z,7.80
2023-02-27T18:39:50.873Z,7.80
2023-02-27T18:42:18.473Z,7.80
2023-02-27T18:44:47.662Z,7.80
2023-02-27T18:52:11.158Z,7.70
2023-02-27T18:54:40.940Z,7.50
2023-02-27T18:57:09.403Z,7.60
2023-02-27T19:04:33.941Z,7.60
2023-02-27T19:12:00.819Z,7.70
2023-02-27T19:14:28.368Z,7.60
2023-02-27T19:16:56.971Z,7.60
2023-02-27T19:19:28.266Z,7.60
2023-02-27T19:21:56.281Z,7.60
2023-02-27T19:24:24.738Z,7.60
2023-02-27T19:29:22.626Z,7.50
2023-02-27T19:31:50.356Z,7.50
2023-02-27T19:34:18.105Z,7.50
2023-02-27T19:36:45.636Z,7.40
2023-02-27T19:39:13.273Z,7.40
2023-02-27T19:41:41.877Z,7.30
2023-02-27T19:44:09.858Z,7.40
2023-02-27T19:46:37.897Z,7.30
2023-02-27T19:51:34.700Z,7.30
2023-02-27T19:54:02.675Z,7.30
2023-02-27T19:56:30.828Z,7.30
2023-02-27T19:59:00.373Z,7.20
2023-02-27T20:01:33.596Z,7.20
2023-02-27T20:04:02.333Z,7.10
2023-02-27T20:06:33.137Z,6.90
2023-02-27T20:11:30.765Z,7.00
2023-02-27T20:13:59.054Z,7.00
2023-02-27T20:21:28.787Z,7.10
2023-02-27T20:23:58.519Z,7.10
2023-02-27T20:26:30.730Z,7.00
2023-02-27T20:29:08.091Z,7.00
2023-02-27T20:31:38.053Z,7.00
2023-02-27T20:34:07.218Z,7.00
2023-02-27T20:36:35.937Z,6.90
2023-02-27T20:39:05.509Z,6.90
2023-02-27T20:41:34.698Z,6.80
2023-02-27T20:44:08.227Z,6.90
2023-02-27T20:46:36.601Z,6.80
2023-02-27T20:49:06.343Z,6.80
2023-02-27T20:51:36.714Z,6.80
2023-02-27T20:54:11.588Z,6.80
2023-02-27T20:56:41.426Z,6.80
2023-02-27T20:59:12.922Z,6.80
2023-02-27T21:01:41.887Z,6.80
2023-02-27T21:04:09.862Z,6.80
2023-02-27T21:06:37.607Z,6.80
2023-02-27T21:09:06.749Z,6.70
2023-02-27T21:11:35.017Z,6.70
2023-02-27T21:14:06.057Z,6.60
2023-02-27T21:16:33.853Z,6.50
2023-02-27T21:19:01.758Z,6.40
2023-02-27T21:21:31.998Z,6.40
2023-02-27T21:24:00.434Z,6.30
2023-02-27T21:26:37.969Z,6.30
2023-02-27T21:29:07.449Z,6.30
2023-02-27T21:31:37.336Z,6.30
2023-02-27T21:34:08.432Z,6.30
2023-02-27T21:36:42.565Z,6.30
2023-02-27T21:39:19.353Z,6.30
2023-02-27T21:41:47.813Z,6.30
2023-02-27T21:44:19.012Z,6.40
2023-02-27T21:49:19.952Z,6.50
2023-02-27T21:54:17.151Z,6.60
2023-02-27T21:56:46.542Z,6.60
2023-02-27T21:59:15.282Z,6.60
2023-02-27T22:04:17.377Z,6.70
2023-02-27T22:06:45.913Z,6.70
2023-02-27T22:11:41.532Z,6.70
2023-02-27T22:14:10.902Z,6.70
2023-02-27T22:16:38.975Z,6.70
2023-02-27T22:19:08.895Z,6.70
2023-02-27T22:21:38.050Z,6.70
2023-02-27T22:24:07.336Z,6.70
2023-02-27T22:31:37.676Z,6.70
2023-02-27T22:34:10.110Z,6.70
2023-02-27T22:36:38.314Z,6.70
2023-02-27T22:39:06.455Z,6.70
2023-02-27T22:41:36.883Z,6.60
2023-02-27T22:44:05.246Z,6.50
2023-02-27T22:49:04.598Z,6.70
2023-02-27T22:51:32.664Z,6.60
2023-02-27T22:54:03.873Z,6.60
2023-02-27T22:56:32.326Z,6.60
2023-02-27T22:59:00.228Z,6.50
2023-02-27T23:01:30.651Z,6.50
2023-02-27T23:04:00.889Z,6.50
2023-02-27T23:06:34.101Z,6.40
2023-02-27T23:09:02.683Z,6.40
2023-02-27T23:11:31.143Z,6.40
2023-02-27T23:18:57.367Z,6.20
2023-02-27T23:21:30.010Z,6.20
2023-02-27T23:26:28.447Z,6.20
2023-02-27T23:28:56.573Z,6.20
2023-02-27T23:33:52.576Z,6.30
2023-02-27T23:36:20.446Z,6.30
2023-02-27T23:38:48.206Z,6.30
2023-02-27T23:41:20.791Z,6.30
2023-02-27T23:43:53.516Z,6.30
2023-02-27T23:46:21.543Z,6.30
2023-02-27T23:51:17.396Z,6.20
2023-02-27T23:56:25.096Z,6.20
2023-02-27T23:58:55.987Z,6.30
